Big Bear Station Historical Data
Daily Summary for April 6, 2017 Units:  English    Metric   Both
« Previous Day
Next Day »
Daily Weekly Monthly Yearly Custom
  High: Low: Average:
Temperature: 62.2 °F 34.3 °F 47.3 °F
Dew Point: 35.8 °F 5.9 °F 29.5 °F
Humidity: 93 % 19 % 55 %
Wind Speed: 7.3 mph 0.0 mph 2.1 mph
Wind Gust: -999.0 mph - -
Wind:- - SSW
Pressure: 30.21 in 30.13 in -
Precipitation: 0.00 in    
Historical Graphs
 
 
Tabular Data for April 6, 2017
Time Temperature Dew Point Pressure Wind Wind Speed Wind Gust Humidity Rainfall Rate (Hourly)
00:07 37.8 °F 31.9 °F 30.21 in South 1.1 mph -999.0 mph 79 % 0 in
00:22 37.6 °F 32.0 °F 30.21 in South 1.1 mph -999.0 mph 80 % 0 in
00:37 37.2 °F 31.9 °F 30.21 in South 1.7 mph -999.0 mph 81 % 0 in
00:53 37.2 °F 32.2 °F 30.21 in South 1.7 mph -999.0 mph 82 % 0 in
01:08 36.9 °F 31.9 °F 30.21 in South 1.1 mph -999.0 mph 82 % 0 in
01:24 36.5 °F 31.5 °F 30.20 in Calm   -999.0 mph 82 % 0 in
01:39 36.5 °F 31.2 °F 30.20 in South 1.7 mph -999.0 mph 81 % 0 in
01:54 36.1 °F 30.8 °F 30.19 in South 1.7 mph -999.0 mph 81 % 0 in
02:10 35.8 °F 30.8 °F 30.19 in SSE 1.7 mph -999.0 mph 82 % 0 in
02:25 35.8 °F 31.1 °F 30.19 in Calm   -999.0 mph 83 % 0 in
02:40 35.6 °F 31.2 °F 30.19 in Calm   -999.0 mph 84 % 0 in
02:55 35.6 °F 31.2 °F 30.18 in South 2.2 mph -999.0 mph 84 % 0 in
03:10 35.1 °F 30.8 °F 30.17 in Calm   -999.0 mph 84 % 0 in
03:26 34.9 °F 30.9 °F 30.17 in Calm   -999.0 mph 85 % 0 in
03:41 34.9 °F 31.4 °F 30.17 in Calm   -999.0 mph 87 % 0 in
03:56 35.1 °F 32.2 °F 30.17 in South 1.7 mph -999.0 mph 89 % 0 in
04:11 34.9 °F 32.0 °F 30.17 in SSE 1.7 mph -999.0 mph 89 % 0 in
04:57 34.7 °F 32.1 °F 30.17 in South 1.7 mph -999.0 mph 90 % 0 in
05:12 34.3 °F 31.7 °F 30.17 in Calm   -999.0 mph 90 % 0 in
05:27 34.7 °F 32.3 °F 30.17 in South 2.7 mph -999.0 mph 91 % 0 in
05:43 34.3 °F 31.9 °F 30.17 in Calm   -999.0 mph 91 % 0 in
05:58 34.5 °F 32.4 °F 30.17 in Calm   -999.0 mph 92 % 0 in
06:13 34.9 °F 32.8 °F 30.17 in Calm   -999.0 mph 92 % 0 in
06:28 34.7 °F 32.6 °F 30.16 in South 1.1 mph -999.0 mph 92 % 0 in
06:44 35.1 °F 33.3 °F 30.17 in South 2.2 mph -999.0 mph 93 % 0 in
06:59 35.4 °F 33.6 °F 30.17 in Calm   -999.0 mph 93 % 0 in
07:14 36.3 °F 34.2 °F 30.18 in Calm   -999.0 mph 92 % 0 in
07:30 37.4 °F 35.0 °F 30.18 in Calm   -999.0 mph 91 % 0 in
07:45 37.8 °F 35.4 °F 30.17 in Calm   -999.0 mph 91 % 0 in
08:00 38.8 °F 35.8 °F 30.17 in Calm   -999.0 mph 89 % 0 in
08:15 40.3 °F 35.2 °F 30.17 in Calm   -999.0 mph 82 % 0 in
08:30 44.2 °F 33.2 °F 30.17 in Calm   -999.0 mph 65 % 0 in
08:46 48.2 °F 30.4 °F 30.17 in WNW 3.7 mph -999.0 mph 50 % 0 in
09:01 49.1 °F 30.2 °F 30.17 in ESE 1.1 mph -999.0 mph 48 % 0 in
09:16 50.5 °F 28.2 °F 30.17 in NW 4.7 mph -999.0 mph 42 % 0 in
09:31 51.6 °F 29.2 °F 30.17 in North 2.7 mph -999.0 mph 42 % 0 in
09:47 52.2 °F 28.6 °F 30.18 in NW 6.3 mph -999.0 mph 40 % 0 in
10:02 53.4 °F 27.1 °F 30.18 in SSW 2.2 mph -999.0 mph 36 % 0 in
10:17 54.9 °F 29.8 °F 30.18 in NNW 3.7 mph -999.0 mph 38 % 0 in
10:32 55.9 °F 30.6 °F 30.18 in NE 4.7 mph -999.0 mph 38 % 0 in
10:48 57.4 °F 30.7 °F 30.18 in NW 1.1 mph -999.0 mph 36 % 0 in
11:03 58.5 °F 30.2 °F 30.18 in SSE 2.7 mph -999.0 mph 34 % 0 in
11:18 60.1 °F 30.1 °F 30.18 in NNW 5.3 mph -999.0 mph 32 % 0 in
11:33 59.7 °F 29.0 °F 30.18 in NNW 4.7 mph -999.0 mph 31 % 0 in
11:49 60.8 °F 30.0 °F 30.18 in North 4.2 mph -999.0 mph 31 % 0 in
12:04 62.2 °F 33.5 °F 30.18 in West 2.7 mph -999.0 mph 34 % 0 in
12:19 61.5 °F 31.4 °F 30.17 in ESE 1.1 mph -999.0 mph 32 % 0 in
12:34 60.8 °F 32.2 °F 30.17 in NNE 3.2 mph -999.0 mph 34 % 0 in
12:49 61.3 °F 32.7 °F 30.17 in South 3.2 mph -999.0 mph 34 % 0 in
13:05 59.2 °F 32.2 °F 30.17 in West 2.2 mph -999.0 mph 36 % 0 in
13:20 61.7 °F 34.5 °F 30.17 in NNE 2.2 mph -999.0 mph 36 % 0 in
13:35 61.0 °F 33.1 °F 30.17 in NW 4.2 mph -999.0 mph 35 % 0 in
13:50 61.3 °F 31.2 °F 30.16 in ESE 2.2 mph -999.0 mph 32 % 0 in
14:06 61.0 °F 32.4 °F 30.16 in ENE 2.7 mph -999.0 mph 34 % 0 in
14:21 61.9 °F 31.7 °F 30.16 in West 2.7 mph -999.0 mph 32 % 0 in
14:36 59.9 °F 28.4 °F 30.16 in SSE 5.3 mph -999.0 mph 30 % 0 in
14:51 59.0 °F 30.7 °F 30.16 in SSE 4.2 mph -999.0 mph 34 % 0 in
15:07 59.0 °F 29.2 °F 30.16 in South 5.3 mph -999.0 mph 32 % 0 in
15:22 58.8 °F 27.4 °F 30.15 in SW 3.7 mph -999.0 mph 30 % 0 in
15:37 57.6 °F 25.6 °F 30.15 in SE 5.8 mph -999.0 mph 29 % 0 in
15:52 57.2 °F 23.5 °F 30.16 in South 6.8 mph -999.0 mph 27 % 0 in
16:08 57.2 °F 24.4 °F 30.15 in SSW 2.2 mph -999.0 mph 28 % 0 in
16:23 56.5 °F 27.0 °F 30.15 in SW 5.8 mph -999.0 mph 32 % 0 in
16:38 55.6 °F 29.1 °F 30.15 in South 2.2 mph -999.0 mph 36 % 0 in
16:54 55.6 °F 24.6 °F 30.15 in SSW 2.7 mph -999.0 mph 30 % 0 in
17:09 54.9 °F 26.3 °F 30.15 in SW 1.7 mph -999.0 mph 33 % 0 in
17:24 53.8 °F 26.8 °F 30.14 in SSE 7.3 mph -999.0 mph 35 % 0 in
17:39 53.2 °F 30.7 °F 30.14 in South 5.3 mph -999.0 mph 42 % 0 in
17:54 53.2 °F 31.3 °F 30.13 in SSW 2.2 mph -999.0 mph 43 % 0 in
18:10 53.1 °F 31.2 °F 30.13 in West 2.2 mph -999.0 mph 43 % 0 in
18:25 52.0 °F 30.8 °F 30.13 in NNW 5.3 mph -999.0 mph 44 % 0 in
18:40 51.6 °F 32.0 °F 30.13 in NE 2.7 mph -999.0 mph 47 % 0 in
18:56 50.9 °F 31.4 °F 30.13 in SSW 1.7 mph -999.0 mph 47 % 0 in
19:11 49.8 °F 30.9 °F 30.13 in Calm   -999.0 mph 48 % 0 in
19:26 48.9 °F 30.6 °F 30.13 in Calm   -999.0 mph 49 % 0 in
19:41 47.7 °F 31.9 °F 30.14 in Calm   -999.0 mph 54 % 0 in
20:12 46.0 °F 33.3 °F 30.14 in SSE 2.2 mph -999.0 mph 61 % 0 in
20:27 45.7 °F 33.0 °F 30.15 in WNW 1.7 mph -999.0 mph 61 % 0 in
20:42 45.0 °F 33.6 °F 30.15 in SW 1.7 mph -999.0 mph 64 % 0 in
20:57 44.1 °F 32.3 °F 30.16 in Calm   -999.0 mph 63 % 0 in
21:12 43.5 °F 29.7 °F 30.16 in Calm   -999.0 mph 58 % 0 in
21:28 43.0 °F 26.6 °F 30.17 in Calm   -999.0 mph 52 % 0 in
21:43 43.2 °F 23.8 °F 30.17 in Calm   -999.0 mph 46 % 0 in
21:58 43.5 °F 20.8 °F 30.16 in SSE 1.7 mph -999.0 mph 40 % 0 in
22:13 44.6 °F 17.9 °F 30.16 in ESE 1.1 mph -999.0 mph 34 % 0 in
22:44 45.1 °F 13.9 °F 30.15 in SSW 1.7 mph -999.0 mph 28 % 0 in
22:59 45.9 °F 5.9 °F 30.16 in SW 2.2 mph -999.0 mph 19 % 0 in
23:14 46.0 °F 8.2 °F 30.16 in NW 2.2 mph -999.0 mph 21 % 0 in
23:29 45.9 °F 13.8 °F 30.16 in SSW 1.1 mph -999.0 mph 27 % 0 in
23:45 45.9 °F 16.9 °F 30.15 in NNW 3.2 mph -999.0 mph 31 % 0 in
Big Bear CA Weather
Compliments of Weather Underground - 1.5 mb